createdAt,value
2022-08-25T00:02:16.389Z,23.15
2022-08-25T00:04:45.126Z,21.70
2022-08-25T00:07:22.997Z,22.17
2022-08-25T00:09:49.814Z,18.60
2022-08-25T00:12:16.763Z,22.13
2022-08-25T00:14:43.627Z,18.52
2022-08-25T00:17:10.466Z,19.15
2022-08-25T00:19:38.394Z,23.20
2022-08-25T00:22:07.252Z,18.48
2022-08-25T00:24:34.168Z,17.98
2022-08-25T00:27:01.243Z,22.73
2022-08-25T00:29:29.472Z,23.98
2022-08-25T00:31:56.929Z,19.75
2022-08-25T00:34:27.424Z,22.65
2022-08-25T00:36:54.776Z,16.58
2022-08-25T00:39:23.425Z,20.98
2022-08-25T00:41:53.111Z,21.48
2022-08-25T00:44:20.767Z,19.38
2022-08-25T00:46:55.988Z,22.88
2022-08-25T00:49:44.909Z,20.10
2022-08-25T00:52:17.694Z,19.23
2022-08-25T00:55:04.298Z,19.20
2022-08-25T00:57:39.312Z,18.85
2022-08-25T01:00:20.697Z,20.67
2022-08-25T01:02:47.569Z,16.10
2022-08-25T01:05:14.784Z,20.48
2022-08-25T01:07:43.549Z,16.45
2022-08-25T01:10:12.846Z,20.50
2022-08-25T01:12:40.616Z,17.10
2022-08-25T01:15:09.775Z,21.08
2022-08-25T01:17:49.733Z,14.95
2022-08-25T01:20:18.407Z,22.90
2022-08-25T01:22:45.362Z,18.63
2022-08-25T01:25:36.274Z,18.65
2022-08-25T01:28:04.706Z,17.35
2022-08-25T01:30:31.919Z,17.88
2022-08-25T01:32:58.770Z,19.60
2022-08-25T01:35:25.699Z,19.85
2022-08-25T01:37:52.551Z,17.90
2022-08-25T01:40:19.525Z,19.08
2022-08-25T01:43:16.161Z,16.10
2022-08-25T01:45:46.892Z,16.17
2022-08-25T01:48:15.143Z,19.33
2022-08-25T01:50:42.799Z,15.80
2022-08-25T01:53:13.291Z,21.40
2022-08-25T01:55:40.269Z,19.55
2022-08-25T01:58:07.091Z,18.20
2022-08-25T02:00:34.019Z,16.50
2022-08-25T02:03:00.979Z,18.15
2022-08-25T02:05:27.900Z,19.33
2022-08-25T02:07:55.056Z,19.20
2022-08-25T02:10:21.952Z,20.20
2022-08-25T02:12:50.168Z,21.17
2022-08-25T02:15:17.184Z,20.45
2022-08-25T02:17:43.987Z,17.98
2022-08-25T02:20:11.127Z,20.17
2022-08-25T02:22:38.000Z,19.52
2022-08-25T02:25:05.992Z,17.85
2022-08-25T02:27:32.861Z,16.80
2022-08-25T02:29:59.736Z,16.27
2022-08-25T02:32:26.533Z,12.20
2022-08-25T02:34:53.427Z,14.90
2022-08-25T02:37:20.286Z,18.90
2022-08-25T02:39:47.148Z,17.90
2022-08-25T02:42:14.260Z,18.30
2022-08-25T02:44:41.096Z,15.07
2022-08-25T02:47:07.946Z,15.32
2022-08-25T02:49:34.744Z,14.43
2022-08-25T02:52:01.886Z,17.35
2022-08-25T02:54:30.620Z,17.83
2022-08-25T02:56:57.478Z,17.67
2022-08-25T02:59:24.395Z,21.10
2022-08-25T03:01:51.251Z,13.90
2022-08-25T03:04:18.678Z,16.77
2022-08-25T03:06:46.172Z,18.02
2022-08-25T03:09:13.489Z,16.85
2022-08-25T03:11:40.541Z,17.63
2022-08-25T03:14:08.812Z,16.38
2022-08-25T03:16:36.045Z,18.27
2022-08-25T03:19:03.756Z,17.98
2022-08-25T03:21:32.506Z,18.00
2022-08-25T03:24:00.290Z,18.83
2022-08-25T03:26:27.118Z,16.98
2022-08-25T03:28:54.193Z,15.25
2022-08-25T03:31:22.562Z,14.30
2022-08-25T03:33:49.444Z,15.60
2022-08-25T03:36:16.336Z,18.33
2022-08-25T03:38:43.179Z,15.27
2022-08-25T03:41:22.765Z,16.02
2022-08-25T03:43:50.813Z,18.50
2022-08-25T03:46:23.545Z,17.02
2022-08-25T03:48:51.857Z,15.27
2022-08-25T03:51:23.569Z,17.42
2022-08-25T03:53:52.181Z,15.80
2022-08-25T03:56:20.098Z,15.10
2022-08-25T03:58:47.171Z,14.38
2022-08-25T04:01:14.857Z,16.67
2022-08-25T04:03:42.319Z,14.63
2022-08-25T04:06:09.481Z,12.75
2022-08-25T04:08:37.347Z,16.73
2022-08-25T04:11:13.396Z,12.75
2022-08-25T04:13:40.766Z,15.05
2022-08-25T04:16:16.861Z,16.10
2022-08-25T04:18:44.104Z,14.38
2022-08-25T04:21:11.742Z,12.40
2022-08-25T04:23:41.219Z,13.23
2022-08-25T04:26:20.416Z,13.55
2022-08-25T04:28:48.332Z,14.50
2022-08-25T04:31:17.217Z,12.43
2022-08-25T04:33:44.143Z,12.55
2022-08-25T04:36:12.361Z,12.75
2022-08-25T04:38:40.256Z,13.55
2022-08-25T04:41:11.077Z,13.02
2022-08-25T04:43:40.135Z,10.85
2022-08-25T04:46:14.187Z,13.80
2022-08-25T04:48:47.466Z,11.15
2022-08-25T04:51:17.285Z,17.00
2022-08-25T04:53:44.149Z,11.88
2022-08-25T04:56:15.854Z,12.82
2022-08-25T04:58:42.781Z,13.02
2022-08-25T05:01:12.800Z,10.65
2022-08-25T05:03:39.681Z,12.23
2022-08-25T05:06:06.841Z,11.90
2022-08-25T05:08:34.406Z,13.60
2022-08-25T05:11:10.503Z,9.95
2022-08-25T05:13:37.480Z,12.75
2022-08-25T05:16:04.491Z,13.02
2022-08-25T05:18:36.730Z,13.45
2022-08-25T05:21:06.095Z,16.42
2022-08-25T05:23:33.557Z,10.43
2022-08-25T05:26:09.975Z,9.93
2022-08-25T05:28:40.728Z,10.88
2022-08-25T05:31:09.776Z,12.40
2022-08-25T05:33:38.460Z,9.45
2022-08-25T05:36:05.793Z,11.18
2022-08-25T05:38:32.664Z,14.25
2022-08-25T05:41:00.859Z,11.15
2022-08-25T05:43:27.946Z,10.32
2022-08-25T05:45:56.020Z,14.98
2022-08-25T05:48:23.100Z,9.60
2022-08-25T05:50:57.851Z,8.23
2022-08-25T05:53:26.441Z,20.92
2022-08-25T05:55:55.303Z,13.48
2022-08-25T05:58:23.141Z,15.50
2022-08-25T06:00:50.972Z,10.27
2022-08-25T06:03:18.159Z,9.45
2022-08-25T06:05:45.134Z,10.63
2022-08-25T06:08:12.052Z,12.15
2022-08-25T06:10:38.959Z,12.23
2022-08-25T06:13:06.464Z,9.50
2022-08-25T06:15:33.473Z,9.98
2022-08-25T06:18:01.766Z,8.65
2022-08-25T06:20:31.137Z,9.40
2022-08-25T06:22:58.546Z,11.85
2022-08-25T06:25:27.382Z,13.00
2022-08-25T06:27:55.280Z,11.07
2022-08-25T06:30:24.623Z,11.43
2022-08-25T06:32:56.052Z,12.40
2022-08-25T06:35:23.226Z,8.18
2022-08-25T06:37:50.045Z,10.20
2022-08-25T06:40:17.361Z,9.48
2022-08-25T06:42:48.808Z,12.13
2022-08-25T06:45:15.742Z,11.70
2022-08-25T06:47:42.560Z,11.38
2022-08-25T06:50:10.111Z,10.15
2022-08-25T06:52:37.116Z,12.18
2022-08-25T06:55:04.202Z,9.85
2022-08-25T06:57:31.072Z,10.10
2022-08-25T06:59:58.052Z,11.60
2022-08-25T07:02:24.949Z,11.70
2022-08-25T07:04:51.826Z,9.80
2022-08-25T07:07:18.658Z,8.48
2022-08-25T07:09:45.529Z,10.63
2022-08-25T07:12:12.354Z,8.98
2022-08-25T07:14:39.581Z,11.85
2022-08-25T07:17:12.064Z,9.85
2022-08-25T07:19:40.905Z,10.32
2022-08-25T07:22:07.955Z,12.48
2022-08-25T07:24:36.359Z,13.95
2022-08-25T07:27:03.278Z,16.73
2022-08-25T07:29:32.660Z,18.80
2022-08-25T07:32:01.574Z,14.00
2022-08-25T07:34:28.830Z,16.50
2022-08-25T07:36:56.983Z,13.60
2022-08-25T07:39:25.179Z,11.52
2022-08-25T07:41:53.204Z,12.45
2022-08-25T07:44:21.763Z,12.23
2022-08-25T07:46:50.364Z,14.35
2022-08-25T07:49:23.222Z,13.82
2022-08-25T07:52:03.614Z,9.02
2022-08-25T07:54:34.809Z,17.35
2022-08-25T07:57:03.941Z,21.75
2022-08-25T07:59:31.098Z,12.60
2022-08-25T08:02:08.754Z,11.43
2022-08-25T08:04:37.020Z,11.23
2022-08-25T08:07:04.814Z,16.00
2022-08-25T08:09:38.863Z,14.15
2022-08-25T08:12:06.144Z,17.75
2022-08-25T08:14:32.960Z,12.65
2022-08-25T08:17:00.020Z,12.10
2022-08-25T08:19:26.994Z,14.38
2022-08-25T08:21:54.327Z,14.25
2022-08-25T08:24:44.023Z,12.77
2022-08-25T08:27:12.755Z,12.85
2022-08-25T08:29:41.523Z,13.82
2022-08-25T08:32:11.656Z,19.05
2022-08-25T08:34:38.494Z,18.52
2022-08-25T08:37:05.431Z,12.25
2022-08-25T08:39:37.748Z,12.07
2022-08-25T08:42:22.455Z,12.00
2022-08-25T08:45:18.431Z,10.02
2022-08-25T08:47:54.478Z,9.68
2022-08-25T08:50:49.367Z,10.13
2022-08-25T08:53:44.541Z,8.93
2022-08-25T08:56:23.492Z,10.00
2022-08-25T08:58:55.701Z,5.47
2022-08-25T09:01:31.604Z,8.48
2022-08-25T09:04:17.389Z,5.25
2022-08-25T09:06:49.044Z,6.13
2022-08-25T09:09:35.704Z,4.72
2022-08-25T09:12:26.600Z,8.18
2022-08-25T09:15:22.449Z,6.07
2022-08-25T09:18:13.017Z,8.52
2022-08-25T09:21:00.432Z,6.00
2022-08-25T09:23:46.852Z,6.57
2022-08-25T09:26:39.012Z,7.35
2022-08-25T09:29:17.006Z,8.68
2022-08-25T09:31:45.109Z,8.07
2022-08-25T09:34:20.864Z,8.65
2022-08-25T09:36:48.520Z,8.10
2022-08-25T09:39:15.637Z,9.10
2022-08-25T09:41:52.566Z,10.30
2022-08-25T09:44:33.436Z,7.63
2022-08-25T09:49:39.309Z,7.47
2022-08-25T09:52:30.094Z,9.48
2022-08-25T09:57:43.914Z,7.50
2022-08-25T10:00:15.725Z,6.70
2022-08-25T10:02:45.654Z,6.60
2022-08-25T10:05:24.708Z,9.67
2022-08-25T10:08:02.939Z,5.97
2022-08-25T10:10:33.544Z,6.22
2022-08-25T10:13:02.193Z,6.40
2022-08-25T10:15:32.970Z,7.85
2022-08-25T10:18:27.251Z,6.47
2022-08-25T10:21:12.800Z,9.27
2022-08-25T10:23:47.173Z,8.13
2022-08-25T10:26:36.922Z,4.63
2022-08-25T10:29:11.156Z,7.38
2022-08-25T10:31:50.701Z,11.45
2022-08-25T10:34:35.831Z,11.52
2022-08-25T10:37:18.718Z,7.10
2022-08-25T10:40:16.622Z,7.68
2022-08-25T10:43:05.035Z,7.55
2022-08-25T10:45:39.031Z,7.57
2022-08-25T10:48:27.503Z,8.23
2022-08-25T10:51:18.665Z,5.82
2022-08-25T10:53:49.293Z,7.75
2022-08-25T10:56:50.550Z,6.85
2022-08-25T10:59:51.398Z,4.43
2022-08-25T11:02:57.287Z,9.55
2022-08-25T11:05:33.477Z,8.77
2022-08-25T11:08:20.107Z,8.48
2022-08-25T11:10:52.797Z,7.75
2022-08-25T11:13:37.253Z,8.02
2022-08-25T11:16:19.573Z,4.93
2022-08-25T11:18:58.335Z,8.77
2022-08-25T11:21:36.475Z,8.05
2022-08-25T11:24:29.760Z,6.13
2022-08-25T11:26:57.967Z,9.70
2022-08-25T11:29:29.996Z,5.38
2022-08-25T11:31:59.829Z,8.50
2022-08-25T11:34:32.950Z,8.30
2022-08-25T11:37:07.177Z,4.72
2022-08-25T11:39:59.959Z,7.30
2022-08-25T11:42:50.744Z,4.72
2022-08-25T11:48:21.941Z,4.15
2022-08-25T11:51:00.311Z,6.38
2022-08-25T11:53:28.377Z,8.38
2022-08-25T11:56:04.371Z,5.87
2022-08-25T11:58:57.648Z,8.38
2022-08-25T12:01:40.149Z,9.10
2022-08-25T12:04:14.958Z,10.50
2022-08-25T12:07:19.703Z,6.22
2022-08-25T12:09:52.901Z,7.43
2022-08-25T12:12:30.270Z,10.40
2022-08-25T12:15:32.321Z,10.30
2022-08-25T12:18:14.367Z,5.55
2022-08-25T12:20:54.321Z,6.88
2022-08-25T12:23:39.910Z,7.15
2022-08-25T12:29:02.024Z,5.28
2022-08-25T12:32:05.262Z,6.45
2022-08-25T12:34:51.561Z,5.68
2022-08-25T12:37:21.526Z,7.45
2022-08-25T12:42:30.245Z,7.90
2022-08-25T12:45:22.930Z,6.85
2022-08-25T12:47:52.640Z,9.15
2022-08-25T12:50:42.576Z,7.07
2022-08-25T12:53:12.061Z,7.88
2022-08-25T12:55:46.439Z,7.43
2022-08-25T12:58:13.430Z,6.70
2022-08-25T13:01:00.938Z,8.10
2022-08-25T13:03:46.963Z,10.43
2022-08-25T13:06:32.395Z,6.97
2022-08-25T13:09:27.280Z,4.93
2022-08-25T13:12:04.876Z,6.68
2022-08-25T13:14:38.225Z,5.75
2022-08-25T13:17:06.292Z,10.15
2022-08-25T13:19:34.789Z,5.43
2022-08-25T13:22:15.913Z,5.18
2022-08-25T13:24:45.749Z,6.13
2022-08-25T13:27:29.691Z,5.95
2022-08-25T13:29:59.142Z,7.43
2022-08-25T13:32:35.950Z,5.43
2022-08-25T13:35:21.613Z,8.02
2022-08-25T13:37:49.501Z,8.93
2022-08-25T13:40:26.135Z,6.78
2022-08-25T13:42:59.243Z,7.00
2022-08-25T13:45:32.006Z,7.82
2022-08-25T13:47:59.144Z,5.25
2022-08-25T13:50:26.339Z,8.95
2022-08-25T13:53:11.358Z,9.45
2022-08-25T13:55:52.166Z,8.18
2022-08-25T14:01:48.970Z,7.88
2022-08-25T14:04:24.638Z,7.68
2022-08-25T14:07:26.629Z,6.30
2022-08-25T14:10:08.251Z,10.25
2022-08-25T14:12:45.235Z,6.85
2022-08-25T14:15:32.559Z,9.40
2022-08-25T14:18:14.857Z,6.35
2022-08-25T14:20:48.665Z,10.18
2022-08-25T14:23:24.040Z,6.97
2022-08-25T14:25:52.454Z,10.43
2022-08-25T14:28:22.610Z,8.65
2022-08-25T14:31:08.453Z,11.55
2022-08-25T14:33:40.062Z,11.60
2022-08-25T14:36:07.157Z,8.88
2022-08-25T14:38:34.780Z,9.13
2022-08-25T14:41:02.766Z,9.15
2022-08-25T14:43:31.562Z,7.00
2022-08-25T14:46:00.972Z,7.43
2022-08-25T14:48:39.631Z,8.25
2022-08-25T14:51:06.693Z,9.27
2022-08-25T14:53:34.460Z,9.18
2022-08-25T14:56:01.317Z,6.97
2022-08-25T14:58:35.514Z,9.73
2022-08-25T15:01:17.753Z,9.33
2022-08-25T15:03:50.771Z,7.82
2022-08-25T15:06:18.667Z,8.03
2022-08-25T15:08:46.056Z,10.63
2022-08-25T15:11:12.854Z,7.93
2022-08-25T15:13:39.709Z,7.72
2022-08-25T15:16:08.910Z,11.52
2022-08-25T15:18:36.764Z,10.73
2022-08-25T15:21:03.851Z,10.85
2022-08-25T15:23:31.098Z,7.10
2022-08-25T15:25:58.035Z,8.93
2022-08-25T15:28:25.165Z,11.15
2022-08-25T15:30:53.511Z,8.52
2022-08-25T15:33:20.366Z,9.48
2022-08-25T15:35:48.462Z,10.52
2022-08-25T15:38:16.989Z,7.72
2022-08-25T15:40:43.777Z,5.53
2022-08-25T15:43:10.639Z,10.55
2022-08-25T15:45:37.513Z,7.07
2022-08-25T15:48:09.358Z,12.07
2022-08-25T15:50:37.046Z,9.00
2022-08-25T15:53:05.858Z,8.43
2022-08-25T15:55:40.188Z,7.10
2022-08-25T15:58:08.770Z,4.88
2022-08-25T16:00:36.574Z,8.90
2022-08-25T16:03:05.084Z,7.10
2022-08-25T16:08:04.679Z,10.98
2022-08-25T16:10:36.330Z,10.23
2022-08-25T16:13:04.424Z,9.57
2022-08-25T16:15:33.072Z,6.85
2022-08-25T16:18:00.992Z,7.65
2022-08-25T16:20:30.540Z,9.98
2022-08-25T16:22:57.590Z,9.35
2022-08-25T16:25:24.418Z,8.50
2022-08-25T16:27:51.259Z,7.30
2022-08-25T16:30:18.287Z,9.00
2022-08-25T16:32:45.831Z,8.82
2022-08-25T16:35:13.442Z,8.73
2022-08-25T16:37:40.876Z,9.05
2022-08-25T16:40:10.447Z,6.78
2022-08-25T16:42:38.113Z,7.45
2022-08-25T16:45:05.497Z,9.00
2022-08-25T16:47:35.070Z,7.05
2022-08-25T16:50:01.873Z,9.93
2022-08-25T16:52:28.873Z,10.57
2022-08-25T16:54:56.615Z,8.18
2022-08-25T16:57:24.543Z,10.70
2022-08-25T16:59:53.085Z,8.18
2022-08-25T17:02:21.562Z,7.18
2022-08-25T17:04:48.700Z,8.25
2022-08-25T17:07:15.921Z,7.20
2022-08-25T17:09:50.636Z,13.85
2022-08-25T17:12:17.877Z,10.93
2022-08-25T17:14:44.678Z,11.93
2022-08-25T17:17:11.657Z,12.05
2022-08-25T17:19:38.602Z,8.18
2022-08-25T17:22:08.449Z,7.53
2022-08-25T17:24:36.011Z,10.70
2022-08-25T17:27:07.691Z,10.73
2022-08-25T17:29:34.711Z,10.23
2022-08-25T17:32:02.039Z,6.22
2022-08-25T17:34:29.559Z,12.77
2022-08-25T17:36:58.169Z,7.65
2022-08-25T17:39:25.528Z,9.95
2022-08-25T17:41:52.443Z,13.10
2022-08-25T17:44:19.944Z,7.28
2022-08-25T17:46:48.382Z,5.75
2022-08-25T17:49:18.585Z,7.03
2022-08-25T17:51:45.555Z,8.18
2022-08-25T17:54:13.251Z,5.97
2022-08-25T17:56:40.195Z,11.27
2022-08-25T17:59:07.374Z,10.55
2022-08-25T18:01:36.056Z,10.82
2022-08-25T18:04:09.851Z,10.43
2022-08-25T18:06:45.210Z,8.52
2022-08-25T18:09:12.695Z,6.95
2022-08-25T18:11:39.528Z,8.38
2022-08-25T18:14:06.434Z,9.00
2022-08-25T18:16:33.404Z,11.30
2022-08-25T18:19:01.026Z,8.18
2022-08-25T18:21:30.613Z,6.45
2022-08-25T18:23:58.111Z,7.20
2022-08-25T18:26:25.599Z,9.75
2022-08-25T18:28:52.491Z,7.78
2022-08-25T18:31:19.860Z,7.63
2022-08-25T18:33:47.452Z,9.98
2022-08-25T18:36:18.417Z,8.18
2022-08-25T18:38:45.716Z,7.18
2022-08-25T18:41:12.939Z,7.40
2022-08-25T18:43:39.828Z,8.75
2022-08-25T18:46:06.898Z,8.40
2022-08-25T18:48:35.229Z,10.57
2022-08-25T18:51:03.751Z,7.10
2022-08-25T18:53:37.586Z,8.98
2022-08-25T18:56:17.525Z,7.25
2022-08-25T18:58:44.437Z,7.13
2022-08-25T19:01:15.708Z,6.68
2022-08-25T19:03:43.088Z,8.10
2022-08-25T19:06:24.560Z,5.20
2022-08-25T19:08:52.367Z,8.05
2022-08-25T19:11:22.292Z,7.30
2022-08-25T19:13:50.729Z,11.75
2022-08-25T19:16:36.778Z,8.02
2022-08-25T19:19:07.006Z,7.97
2022-08-25T19:21:35.620Z,9.63
2022-08-25T19:24:03.238Z,7.25
2022-08-25T19:26:30.658Z,5.88
2022-08-25T19:28:58.837Z,8.65
2022-08-25T19:31:27.792Z,6.80
2022-08-25T19:34:00.895Z,11.15
2022-08-25T19:36:29.735Z,9.27
2022-08-25T19:38:59.063Z,5.25
2022-08-25T19:41:27.759Z,6.18
2022-08-25T19:43:57.501Z,6.93
2022-08-25T19:46:32.329Z,7.45
2022-08-25T19:49:07.152Z,7.38
2022-08-25T19:51:37.563Z,5.25
2022-08-25T19:54:05.735Z,5.22
2022-08-25T19:56:32.766Z,5.50
2022-08-25T19:59:00.025Z,9.02
2022-08-25T20:01:27.776Z,5.63
2022-08-25T20:03:54.693Z,6.35
2022-08-25T20:06:27.699Z,7.40
2022-08-25T20:08:58.966Z,8.07
2022-08-25T20:11:28.598Z,10.52
2022-08-25T20:13:58.202Z,7.95
2022-08-25T20:16:27.777Z,7.75
2022-08-25T20:18:54.722Z,9.90
2022-08-25T20:21:21.661Z,13.05
2022-08-25T20:23:49.220Z,9.93
2022-08-25T20:26:16.131Z,8.27
2022-08-25T20:28:43.015Z,10.52
2022-08-25T20:31:10.002Z,8.77
2022-08-25T20:33:36.888Z,6.57
2022-08-25T20:36:03.903Z,8.18
2022-08-25T20:38:31.055Z,7.95
2022-08-25T20:40:59.162Z,10.15
2022-08-25T20:43:26.145Z,6.82
2022-08-25T20:46:02.644Z,9.27
2022-08-25T20:48:30.506Z,8.73
2022-08-25T20:50:57.985Z,8.32
2022-08-25T20:53:25.822Z,11.98
2022-08-25T20:55:52.717Z,9.63
2022-08-25T20:58:20.609Z,7.50
2022-08-25T21:00:47.498Z,8.50
2022-08-25T21:03:14.802Z,10.45
2022-08-25T21:05:43.572Z,14.35
2022-08-25T21:08:11.062Z,9.38
2022-08-25T21:10:37.922Z,9.57
2022-08-25T21:13:04.780Z,8.00
2022-08-25T21:15:31.700Z,8.38
2022-08-25T21:17:58.644Z,9.15
2022-08-25T21:20:26.634Z,11.38
2022-08-25T21:22:53.694Z,13.68
2022-08-25T21:25:21.289Z,9.82
2022-08-25T21:27:49.127Z,9.60
2022-08-25T21:30:16.718Z,12.45
2022-08-25T21:32:53.047Z,9.02
2022-08-25T21:35:22.778Z,6.30
2022-08-25T21:37:53.553Z,7.82
2022-08-25T21:42:49.114Z,8.70
2022-08-25T21:45:16.797Z,9.98
2022-08-25T21:47:48.097Z,10.10
2022-08-25T21:50:15.123Z,7.55
2022-08-25T21:52:42.295Z,11.05
2022-08-25T21:55:16.094Z,11.60
2022-08-25T21:57:43.950Z,12.20
2022-08-25T22:00:12.130Z,8.25
2022-08-25T22:02:39.285Z,11.65
2022-08-25T22:05:09.415Z,5.70
2022-08-25T22:07:42.059Z,8.88
2022-08-25T22:10:16.559Z,11.52
2022-08-25T22:12:45.929Z,8.45
2022-08-25T22:15:13.734Z,10.52
2022-08-25T22:17:41.408Z,14.05
2022-08-25T22:20:09.563Z,12.80
2022-08-25T22:22:36.413Z,12.32
2022-08-25T22:25:04.210Z,8.77
2022-08-25T22:27:32.188Z,11.10
2022-08-25T22:29:59.054Z,7.28
2022-08-25T22:32:25.919Z,9.05
2022-08-25T22:34:53.039Z,9.00
2022-08-25T22:37:20.370Z,8.48
2022-08-25T22:39:47.391Z,11.35
2022-08-25T22:42:14.998Z,8.52
2022-08-25T22:44:42.137Z,8.55
2022-08-25T22:47:09.305Z,11.48
2022-08-25T22:49:38.980Z,11.02
2022-08-25T22:52:07.629Z,9.20
2022-08-25T22:54:38.720Z,7.63
2022-08-25T22:57:06.806Z,9.43
2022-08-25T22:59:33.911Z,15.27
2022-08-25T23:02:01.040Z,9.77
2022-08-25T23:04:28.003Z,10.00
2022-08-25T23:06:55.239Z,12.18
2022-08-25T23:09:24.855Z,8.93
2022-08-25T23:11:52.231Z,9.05
2022-08-25T23:14:19.428Z,9.77
2022-08-25T23:16:46.516Z,10.20
2022-08-25T23:19:14.416Z,10.52
2022-08-25T23:21:45.185Z,8.85
2022-08-25T23:24:14.310Z,10.00
2022-08-25T23:26:56.397Z,12.80
2022-08-25T23:29:23.358Z,6.78
2022-08-25T23:31:52.227Z,9.40
2022-08-25T23:34:21.380Z,9.80
2022-08-25T23:36:48.206Z,13.40
2022-08-25T23:39:15.005Z,10.13
2022-08-25T23:41:41.988Z,9.60
2022-08-25T23:44:11.416Z,9.82
2022-08-25T23:46:39.596Z,15.02
2022-08-25T23:49:08.471Z,10.50
2022-08-25T23:51:37.994Z,11.45
2022-08-25T23:54:09.606Z,12.52
2022-08-25T23:56:44.602Z,10.32
2022-08-25T23:59:12.718Z,9.85
